createdAt,value
2022-11-18T00:01:20.672Z,16.85
2022-11-18T00:04:12.111Z,16.37
2022-11-18T00:07:03.637Z,16.83
2022-11-18T00:09:55.489Z,18.32
2022-11-18T00:13:05.695Z,17.10
2022-11-18T00:16:05.244Z,18.13
2022-11-18T00:18:56.776Z,18.00
2022-11-18T00:21:48.865Z,17.90
2022-11-18T00:24:40.901Z,18.45
2022-11-18T00:27:33.953Z,18.20
2022-11-18T00:30:25.828Z,17.90
2022-11-18T00:33:17.272Z,18.80
2022-11-18T00:36:11.401Z,19.23
2022-11-18T00:39:03.164Z,18.53
2022-11-18T00:42:13.290Z,18.20
2022-11-18T00:45:04.890Z,19.30
2022-11-18T00:47:56.775Z,18.93
2022-11-18T00:50:48.088Z,18.53
2022-11-18T00:53:39.020Z,17.37
2022-11-18T00:56:30.250Z,19.67
2022-11-18T00:59:21.768Z,18.63
2022-11-18T01:02:13.471Z,18.33
2022-11-18T01:05:05.349Z,17.57
2022-11-18T01:07:56.873Z,17.25
2022-11-18T01:10:49.374Z,17.23
2022-11-18T01:13:41.721Z,16.60
2022-11-18T01:16:32.985Z,18.07
2022-11-18T01:19:25.365Z,17.30
2022-11-18T01:22:16.914Z,17.55
2022-11-18T01:25:09.167Z,17.50
2022-11-18T01:28:00.449Z,18.02
2022-11-18T01:30:51.732Z,18.47
2022-11-18T01:33:44.124Z,18.03
2022-11-18T01:36:36.166Z,17.60
2022-11-18T01:39:27.405Z,18.23
2022-11-18T01:42:19.611Z,17.03
2022-11-18T01:48:12.989Z,15.87
2022-11-18T01:51:08.581Z,17.67
2022-11-18T01:54:03.478Z,17.87
2022-11-18T01:56:58.712Z,16.47
2022-11-18T01:59:55.544Z,16.50
2022-11-18T02:02:47.760Z,16.63
2022-11-18T02:05:41.572Z,17.35
2022-11-18T02:08:37.604Z,17.27
2022-11-18T02:11:46.811Z,16.00
2022-11-18T02:14:43.397Z,15.63
2022-11-18T02:17:44.991Z,15.83
2022-11-18T02:20:39.808Z,16.00
2022-11-18T02:24:04.576Z,16.10
2022-11-18T02:27:32.459Z,12.60
2022-11-18T02:30:24.709Z,10.93
2022-11-18T02:33:24.900Z,8.07
2022-11-18T02:36:22.414Z,5.83
2022-11-18T02:39:22.064Z,5.40
2022-11-18T02:42:16.657Z,4.97
2022-11-18T02:45:14.031Z,4.50
2022-11-18T02:48:09.197Z,4.40
2022-11-18T02:51:02.484Z,3.77
2022-11-18T02:53:55.764Z,3.77
2022-11-18T02:56:53.583Z,3.67
2022-11-18T02:59:45.660Z,3.30
2022-11-18T03:02:45.586Z,4.27
2022-11-18T03:05:43.042Z,3.43
2022-11-18T03:08:40.691Z,3.60
2022-11-18T03:11:35.442Z,3.13
2022-11-18T03:14:36.924Z,3.87
2022-11-18T03:17:38.454Z,3.50
2022-11-18T03:20:34.643Z,3.73
2022-11-18T03:23:33.650Z,3.60
2022-11-18T03:26:31.521Z,3.87
2022-11-18T03:29:27.908Z,4.50
2022-11-18T03:32:24.680Z,3.70
2022-11-18T03:35:20.736Z,3.90
2022-11-18T03:38:16.150Z,3.50
2022-11-18T03:41:10.515Z,3.60
2022-11-18T03:44:06.634Z,4.03
2022-11-18T03:47:03.321Z,4.33
2022-11-18T03:49:59.149Z,3.90
2022-11-18T03:52:52.672Z,3.83
2022-11-18T03:55:49.300Z,3.57
2022-11-18T03:58:46.962Z,4.37
2022-11-18T04:01:46.332Z,3.70
2022-11-18T04:04:38.391Z,4.40
2022-11-18T04:07:34.694Z,5.58
2022-11-18T04:10:32.454Z,6.27
2022-11-18T04:13:30.434Z,6.43
2022-11-18T04:16:22.484Z,6.77
2022-11-18T04:19:14.529Z,6.43
2022-11-18T04:22:06.169Z,6.20
2022-11-18T04:24:57.733Z,5.47
2022-11-18T04:27:49.219Z,5.27
2022-11-18T04:30:41.100Z,5.33
2022-11-18T04:33:32.948Z,5.17
2022-11-18T04:36:24.572Z,4.78
2022-11-18T04:39:18.587Z,4.90
2022-11-18T04:42:10.727Z,4.90
2022-11-18T04:45:02.118Z,4.80
2022-11-18T04:47:56.576Z,4.93
2022-11-18T04:50:50.303Z,5.35
2022-11-18T04:53:41.935Z,5.17
2022-11-18T04:56:33.511Z,6.30
2022-11-18T04:59:28.016Z,6.65
2022-11-18T05:02:19.894Z,6.10
2022-11-18T05:05:11.532Z,8.07
2022-11-18T05:08:02.948Z,9.13
2022-11-18T05:11:15.030Z,7.43
2022-11-18T05:14:06.761Z,8.20
2022-11-18T05:17:00.037Z,8.90
2022-11-18T05:19:51.557Z,8.03
2022-11-18T05:22:43.074Z,8.53
2022-11-18T05:25:34.266Z,8.60
2022-11-18T05:28:26.187Z,8.40
2022-11-18T05:31:18.974Z,10.17
2022-11-18T05:34:11.044Z,8.50
2022-11-18T05:37:07.385Z,8.20
2022-11-18T05:39:59.079Z,8.73
2022-11-18T05:43:26.594Z,9.93
2022-11-18T05:46:17.676Z,8.87
2022-11-18T05:49:08.985Z,8.60
2022-11-18T05:52:00.902Z,9.90
2022-11-18T05:54:53.026Z,11.00
2022-11-18T05:57:44.915Z,9.83
2022-11-18T06:00:37.530Z,9.70
2022-11-18T06:03:32.118Z,9.60
2022-11-18T06:06:26.134Z,9.37
2022-11-18T06:09:21.963Z,10.30
2022-11-18T06:12:19.877Z,8.33
2022-11-18T06:15:17.634Z,8.63
2022-11-18T06:18:12.860Z,9.67
2022-11-18T06:21:09.247Z,9.40
2022-11-18T06:24:00.919Z,10.47
2022-11-18T06:26:53.007Z,11.37
2022-11-18T06:29:44.405Z,10.53
2022-11-18T06:32:36.063Z,9.07
2022-11-18T06:35:27.439Z,10.00
2022-11-18T06:38:21.086Z,10.23
2022-11-18T06:41:12.785Z,10.03
2022-11-18T06:44:04.112Z,9.87
2022-11-18T06:46:58.904Z,8.97
2022-11-18T06:49:50.248Z,9.57
2022-11-18T06:52:41.578Z,10.37
2022-11-18T06:55:33.473Z,11.60
2022-11-18T06:58:26.795Z,10.83
2022-11-18T07:01:18.914Z,11.47
2022-11-18T07:04:19.105Z,11.20
2022-11-18T07:07:11.080Z,12.17
2022-11-18T07:10:02.642Z,11.80
2022-11-18T07:12:54.234Z,12.33
2022-11-18T07:15:45.535Z,11.10
2022-11-18T07:18:38.705Z,11.07
2022-11-18T07:21:31.469Z,10.67
2022-11-18T07:24:22.790Z,11.43
2022-11-18T07:27:14.416Z,11.23
2022-11-18T07:30:06.398Z,13.60
2022-11-18T07:32:57.966Z,12.00
2022-11-18T07:35:49.280Z,13.10
2022-11-18T07:38:41.706Z,13.97
2022-11-18T07:41:34.489Z,12.53
2022-11-18T07:47:15.863Z,12.60
2022-11-18T07:50:08.233Z,12.27
2022-11-18T07:53:00.427Z,13.57
2022-11-18T07:55:51.859Z,13.13
2022-11-18T07:58:43.646Z,13.30
2022-11-18T08:01:35.347Z,13.72
2022-11-18T08:04:27.291Z,13.45
2022-11-18T08:07:18.787Z,13.07
2022-11-18T08:10:12.000Z,13.55
2022-11-18T08:13:03.714Z,13.70
2022-11-18T08:15:56.781Z,14.17
2022-11-18T08:18:49.447Z,11.83
2022-11-18T08:24:31.218Z,12.23
2022-11-18T08:27:23.154Z,12.37
2022-11-18T08:30:16.101Z,11.57
2022-11-18T08:33:08.001Z,12.93
2022-11-18T08:35:59.352Z,15.65
2022-11-18T08:38:51.084Z,16.50
2022-11-18T08:41:44.757Z,16.30
2022-11-18T08:44:36.492Z,16.40
2022-11-18T08:47:28.043Z,14.47
2022-11-18T08:50:19.764Z,15.50
2022-11-18T08:53:11.276Z,15.88
2022-11-18T08:56:03.420Z,16.60
2022-11-18T08:58:55.622Z,15.43
2022-11-18T09:01:47.011Z,15.65
2022-11-18T09:04:38.766Z,15.20
2022-11-18T09:07:31.787Z,17.03
2022-11-18T09:10:23.619Z,17.33
2022-11-18T09:13:43.436Z,15.72
2022-11-18T09:16:28.717Z,16.05
2022-11-18T09:22:30.236Z,15.53
2022-11-18T09:25:22.159Z,16.60
2022-11-18T09:28:33.423Z,17.07
2022-11-18T09:31:28.191Z,15.83
2022-11-18T09:34:29.008Z,16.10
2022-11-18T09:37:26.493Z,15.03
2022-11-18T09:40:23.665Z,15.80
2022-11-18T11:02:58.661Z,12.43
2022-11-18T11:06:44.698Z,12.87
2022-11-18T11:12:14.514Z,13.37
2022-11-18T11:14:54.503Z,13.43
2022-11-18T11:17:35.392Z,13.27
2022-11-18T11:20:18.670Z,13.93
2022-11-18T11:37:24.139Z,13.60
2022-11-18T11:40:26.060Z,13.97
2022-11-18T11:43:13.322Z,13.23
2022-11-18T11:46:05.072Z,13.23
2022-11-18T11:48:53.902Z,13.37
2022-11-18T11:51:34.004Z,12.23
2022-11-18T11:54:17.643Z,13.63
2022-11-18T11:56:56.784Z,14.10
2022-11-18T11:59:39.127Z,13.87
2022-11-18T12:02:37.585Z,13.80
2022-11-18T12:05:23.604Z,14.23
2022-11-18T12:07:59.823Z,14.10
2022-11-18T12:10:44.522Z,14.50
2022-11-18T12:13:27.576Z,13.40
2022-11-18T12:16:12.911Z,14.70
2022-11-18T12:18:50.539Z,13.27
2022-11-18T12:21:58.423Z,13.73
2022-11-18T12:24:37.862Z,13.37
2022-11-18T12:27:16.399Z,13.47
2022-11-18T12:30:01.965Z,13.27
2022-11-18T12:32:43.054Z,14.00
2022-11-18T12:35:32.381Z,13.70
2022-11-18T12:38:06.561Z,14.30
2022-11-18T12:40:47.239Z,14.33
2022-11-18T12:44:06.739Z,14.57
2022-11-18T12:47:00.207Z,14.20
2022-11-18T12:50:15.406Z,14.30
2022-11-18T12:52:56.099Z,13.93
2022-11-18T12:55:34.859Z,15.13
2022-11-18T12:58:25.743Z,13.97
2022-11-18T13:01:12.710Z,13.47
2022-11-18T13:03:46.590Z,13.07
2022-11-18T13:06:29.944Z,13.20
2022-11-18T13:09:06.008Z,12.53
2022-11-18T13:11:51.260Z,12.77
2022-11-18T13:14:46.658Z,13.43
2022-11-18T13:17:48.119Z,10.30
2022-11-18T13:20:31.544Z,10.77
2022-11-18T13:23:25.210Z,10.93
2022-11-18T13:26:06.266Z,11.30
2022-11-18T13:28:48.100Z,11.00
2022-11-18T13:31:29.149Z,11.20
2022-11-18T13:34:13.543Z,11.00
2022-11-18T13:36:49.590Z,11.80
2022-11-18T13:39:25.384Z,12.20
2022-11-18T13:42:07.395Z,12.83
2022-11-18T13:44:41.383Z,14.00
2022-11-18T13:47:25.568Z,14.10
2022-11-18T13:50:07.762Z,14.63
2022-11-18T13:52:45.144Z,14.80
2022-11-18T13:55:23.929Z,15.93
2022-11-18T13:58:08.239Z,14.90
2022-11-18T14:00:41.737Z,15.67
2022-11-18T14:03:28.141Z,15.53
2022-11-18T14:06:02.571Z,15.87
2022-11-18T14:08:38.420Z,16.43
2022-11-18T14:11:13.259Z,16.50
2022-11-18T14:14:03.622Z,16.87
2022-11-18T14:16:40.634Z,15.00
2022-11-18T14:19:31.659Z,15.53
2022-11-18T14:22:13.818Z,16.77
2022-11-18T14:24:55.260Z,16.90
2022-11-18T14:27:41.375Z,16.10
2022-11-18T14:30:36.281Z,16.40
2022-11-18T14:33:18.556Z,16.07
2022-11-18T14:38:51.927Z,18.30
2022-11-18T14:41:48.899Z,16.77
2022-11-18T14:44:24.524Z,16.63
2022-11-18T14:47:01.524Z,18.93
2022-11-18T14:49:35.374Z,17.73
2022-11-18T14:52:11.175Z,17.60
2022-11-18T14:54:44.483Z,17.43
2022-11-18T14:57:19.256Z,16.83
2022-11-18T14:59:52.873Z,17.30
2022-11-18T15:02:26.066Z,17.83
2022-11-18T15:04:59.430Z,18.33
2022-11-18T15:07:32.682Z,19.50
2022-11-18T15:10:06.647Z,19.00
2022-11-18T15:12:40.024Z,18.13
2022-11-18T15:15:14.137Z,18.47
2022-11-18T15:17:51.115Z,17.43
2022-11-18T15:20:27.174Z,17.50
2022-11-18T15:23:00.566Z,18.20
2022-11-18T15:25:34.167Z,19.47
2022-11-18T15:28:08.038Z,19.05
2022-11-18T15:30:41.568Z,18.33
2022-11-18T15:33:15.171Z,21.37
2022-11-18T15:35:48.564Z,21.03
2022-11-18T15:38:21.963Z,21.83
2022-11-18T15:40:55.493Z,21.03
2022-11-18T15:43:29.333Z,20.67
2022-11-18T15:46:03.972Z,22.23
2022-11-18T15:48:37.565Z,20.57
2022-11-18T15:51:12.262Z,20.77
2022-11-18T15:53:46.350Z,19.80
2022-11-18T15:56:29.399Z,21.30
2022-11-18T15:59:04.067Z,21.27
2022-11-18T16:01:39.543Z,23.30
2022-11-18T16:04:15.897Z,22.73
2022-11-18T16:06:49.796Z,22.40
2022-11-18T16:09:23.205Z,22.63
2022-11-18T16:12:13.774Z,24.33
2022-11-18T16:15:07.250Z,24.03
2022-11-18T16:17:40.503Z,24.47
2022-11-18T16:20:15.451Z,25.90
2022-11-18T16:22:49.060Z,26.33
2022-11-18T16:25:22.331Z,26.13
2022-11-18T16:27:55.849Z,24.50
2022-11-18T16:30:46.448Z,23.10
2022-11-18T16:33:19.926Z,22.77
2022-11-18T16:35:53.039Z,23.87
2022-11-18T16:38:26.634Z,23.47
2022-11-18T16:41:00.817Z,25.43
2022-11-18T16:43:33.900Z,23.40
2022-11-18T16:46:11.757Z,23.53
2022-11-18T16:48:45.601Z,22.57
2022-11-18T16:51:25.056Z,23.30
2022-11-18T16:53:59.533Z,24.53
2022-11-18T16:56:34.735Z,24.37
2022-11-18T16:59:12.561Z,25.80
2022-11-18T17:01:46.657Z,25.40
2022-11-18T17:04:20.911Z,24.37
2022-11-18T17:06:55.416Z,26.47
2022-11-18T17:09:29.223Z,27.33
2022-11-18T17:12:03.429Z,26.37
2022-11-18T17:14:38.759Z,26.33
2022-11-18T17:17:12.334Z,24.40
2022-11-18T17:19:45.935Z,24.87
2022-11-18T17:22:19.742Z,24.20
2022-11-18T17:24:53.014Z,25.30
2022-11-18T17:27:26.427Z,25.03
2022-11-18T17:29:59.922Z,23.53
2022-11-18T17:32:33.325Z,25.00
2022-11-18T17:35:08.491Z,24.07
2022-11-18T17:37:41.856Z,24.73
2022-11-18T17:40:16.946Z,25.97
2022-11-18T17:42:53.077Z,26.03
2022-11-18T17:45:26.863Z,24.80
2022-11-18T17:48:00.853Z,25.93
2022-11-18T17:50:34.465Z,26.43
2022-11-18T17:53:07.774Z,26.57
2022-11-18T17:55:41.218Z,27.93
2022-11-18T17:58:15.297Z,29.05
2022-11-18T18:00:48.425Z,28.30
2022-11-18T18:03:21.849Z,26.23
2022-11-18T18:06:02.528Z,26.40
2022-11-18T18:08:36.518Z,26.83
2022-11-18T18:11:13.472Z,27.63
2022-11-18T18:14:04.700Z,27.23
2022-11-18T18:16:38.170Z,26.43
2022-11-18T18:19:14.054Z,26.53
2022-11-18T18:21:48.780Z,29.13
2022-11-18T18:24:22.612Z,27.10
2022-11-18T18:26:58.009Z,26.97
2022-11-18T18:29:31.010Z,25.73
2022-11-18T18:32:04.406Z,25.57
2022-11-18T18:34:37.621Z,26.30
2022-11-18T18:37:11.052Z,25.47
2022-11-18T18:39:44.177Z,26.13
2022-11-18T18:42:17.344Z,25.53
2022-11-18T18:45:08.378Z,26.07
2022-11-18T18:47:42.998Z,24.30
2022-11-18T18:50:16.057Z,25.03
2022-11-18T18:52:49.790Z,25.27
2022-11-18T18:55:23.389Z,26.90
2022-11-18T18:57:56.782Z,27.33
2022-11-18T19:00:33.164Z,27.67
2022-11-18T19:03:06.544Z,28.17
2022-11-18T19:06:16.962Z,27.03
2022-11-18T19:08:33.972Z,27.33
2022-11-18T19:11:30.768Z,29.53
2022-11-18T19:14:09.309Z,29.33
2022-11-18T19:16:44.049Z,28.93
2022-11-18T19:19:19.295Z,28.00
2022-11-18T19:21:52.617Z,27.80
2022-11-18T19:27:19.572Z,26.57
2022-11-18T19:29:52.939Z,26.57
2022-11-18T19:32:26.906Z,28.87
2022-11-18T19:35:00.498Z,28.97
2022-11-18T19:37:34.157Z,29.13
2022-11-18T19:40:10.515Z,29.30
2022-11-18T19:42:44.185Z,30.60
2022-11-18T19:45:17.850Z,30.10
2022-11-18T19:47:51.219Z,30.90
2022-11-18T19:50:24.760Z,29.80
2022-11-18T19:52:58.245Z,28.40
2022-11-18T19:55:31.748Z,27.97
2022-11-18T19:58:05.255Z,27.87
2022-11-18T20:00:38.590Z,27.10
2022-11-18T20:03:11.993Z,26.97
2022-11-18T20:05:54.640Z,27.53
2022-11-18T20:08:28.626Z,26.50
2022-11-18T20:11:09.104Z,27.40
2022-11-18T20:13:47.261Z,28.53
2022-11-18T20:16:22.637Z,28.73
2022-11-18T20:18:58.587Z,29.07
2022-11-18T20:21:33.276Z,29.90
2022-11-18T20:24:09.101Z,29.67
2022-11-18T20:26:42.172Z,29.50
2022-11-18T20:29:16.636Z,28.40
2022-11-18T20:31:50.199Z,29.90
2022-11-18T20:34:23.798Z,28.60
2022-11-18T20:36:57.011Z,27.93
2022-11-18T20:39:30.587Z,27.47
2022-11-18T20:42:20.778Z,25.97
2022-11-18T20:44:54.376Z,27.87
2022-11-18T20:47:27.566Z,28.10
2022-11-18T20:50:00.757Z,28.03
2022-11-18T20:52:36.240Z,28.20
2022-11-18T20:55:11.726Z,27.97
2022-11-18T20:57:45.036Z,26.67
2022-11-18T21:00:19.833Z,27.27
2022-11-18T21:02:53.073Z,26.87
2022-11-18T21:05:26.459Z,28.87
2022-11-18T21:07:59.433Z,27.00
2022-11-18T21:10:33.668Z,25.53
2022-11-18T21:13:24.247Z,28.40
2022-11-18T21:15:57.287Z,27.13
2022-11-18T21:18:33.718Z,28.87
2022-11-18T21:21:24.705Z,28.50
2022-11-18T21:23:59.858Z,29.43
2022-11-18T21:26:34.467Z,29.10
2022-11-18T21:29:09.704Z,28.80
2022-11-18T21:31:44.123Z,27.80
2022-11-18T21:34:18.960Z,27.80
2022-11-18T21:36:54.847Z,28.77
2022-11-18T21:39:29.326Z,28.90
2022-11-18T21:42:02.541Z,29.87
2022-11-18T21:44:36.112Z,28.20
2022-11-18T21:47:09.306Z,28.20
2022-11-18T21:49:43.115Z,30.03
2022-11-18T21:52:16.556Z,32.50
2022-11-18T21:54:49.694Z,34.37
2022-11-18T21:57:22.881Z,34.50
2022-11-18T21:59:56.969Z,32.93
2022-11-18T22:02:30.080Z,30.13
2022-11-18T22:05:07.028Z,30.23
2022-11-18T22:07:41.726Z,31.30
2022-11-18T22:10:17.054Z,31.43
2022-11-18T22:12:51.724Z,30.87
2022-11-18T22:15:25.442Z,31.17
2022-11-18T22:17:58.844Z,31.23
2022-11-18T22:20:32.238Z,33.07
2022-11-18T22:23:06.251Z,33.10
2022-11-18T22:25:39.316Z,31.40
2022-11-18T22:28:13.243Z,32.47
2022-11-18T22:30:46.433Z,30.03
2022-11-18T22:33:19.831Z,31.53
2022-11-18T22:35:52.987Z,32.00
2022-11-18T22:38:26.630Z,31.30
2022-11-18T22:41:04.052Z,30.93
2022-11-18T22:43:37.915Z,32.40
2022-11-18T22:46:12.280Z,30.73
2022-11-18T22:48:45.938Z,32.47
2022-11-18T22:51:20.009Z,31.53
2022-11-18T22:54:09.753Z,33.50
2022-11-18T22:56:46.971Z,33.93
2022-11-18T22:59:20.618Z,31.30
2022-11-18T23:01:54.995Z,30.60
2022-11-18T23:04:28.214Z,31.50
2022-11-18T23:07:01.870Z,32.35
2022-11-18T23:09:35.414Z,32.20
2022-11-18T23:12:27.648Z,33.90
2022-11-18T23:15:01.246Z,31.87
2022-11-18T23:17:34.653Z,32.87
2022-11-18T23:20:10.823Z,31.10
2022-11-18T23:22:43.890Z,33.13
2022-11-18T23:25:17.422Z,36.03
2022-11-18T23:27:54.165Z,33.90
2022-11-18T23:30:27.459Z,33.73
2022-11-18T23:33:00.806Z,33.13
2022-11-18T23:35:34.372Z,33.93
2022-11-18T23:38:07.946Z,31.90
2022-11-18T23:40:41.543Z,32.93
2022-11-18T23:43:14.938Z,32.70
2022-11-18T23:45:48.329Z,34.33
2022-11-18T23:48:23.024Z,33.13
2022-11-18T23:51:00.932Z,31.27
2022-11-18T23:53:35.146Z,32.13
2022-11-18T23:56:12.178Z,32.17
2022-11-18T23:58:46.943Z,31.13
